»·PEaware :: UAL1399 KSAN-KLAX

UAL1399 :: KSAN-KLAX

FLIGHT INFORMATION

Flight Status: Arrived
Operator:
United Airlines
More flights by this operator :: More flights under this callsign
Pilot: David C. (16084)
Aircraft: SAAB 340
(SF34)
More flights by this aircraft type
Origin: KSAN San Diego Intl-Lindbergh
United States
Destination: KLAX Los Angeles Intl
United States
More flights between these airports :: More routes between these airports
Route: CWARD2 SLI
File this flight plan on PilotEdge
Remarks:
Altitude:
(Current/Filed)
8,000ft
Speed:
(Current/Filed)
272kts
Departed: 02-Jul-18 05:51 PM
Arrived: 02-Jul-18 06:21 PM
Distance/Time
Traveled:
94nm/0:30
Distance/Time
To Go:
Arrived

Flight Plot

Page will automatically refresh every two minutes.

Flight plan parsing failed; only flown route is shown


Map Options




Map Legend


Flown Route
Filed Route
Departure Airport
Arrival Airport
Navaid (VOR, NDB)
Fix

Horizontal Profiles

Position Reports

Time Latitude Longitude Heading Altitude Ground
Speed
02-Jul-18 17:28 32.733750 -117.203582 96 22ft 0kts
02-Jul-18 17:29 32.733750 -117.203582 96 22ft 0kts
02-Jul-18 17:30 32.733750 -117.203582 96 22ft 0kts
02-Jul-18 17:31 32.733750 -117.203582 96 22ft 0kts
02-Jul-18 17:32 32.733750 -117.203582 96 22ft 0kts
02-Jul-18 17:33 32.733750 -117.203582 96 22ft 0kts
02-Jul-18 17:34 32.733750 -117.203582 96 22ft 0kts
02-Jul-18 17:35 32.733750 -117.203582 96 22ft 0kts
02-Jul-18 17:36 32.733750 -117.203582 96 22ft 0kts
02-Jul-18 17:37 32.733750 -117.203582 96 22ft 0kts
02-Jul-18 17:38 32.733750 -117.203582 96 22ft 0kts
02-Jul-18 17:39 32.733750 -117.203582 96 22ft 0kts
02-Jul-18 17:40 32.733750 -117.203582 96 22ft 0kts
02-Jul-18 17:41 32.733750 -117.203582 96 22ft 0kts
02-Jul-18 17:42 32.733750 -117.203582 96 22ft 0kts
02-Jul-18 17:43 32.733750 -117.203582 96 22ft 0kts
02-Jul-18 17:44 32.733714 -117.203200 95 22ft 9kts
02-Jul-18 17:45 32.734406 -117.202626 11 22ft 11kts
02-Jul-18 17:46 32.733973 -117.195638 106 22ft 29kts
02-Jul-18 17:47 32.731807 -117.186660 106 22ft 26kts
02-Jul-18 17:48 32.729662 -117.177998 107 22ft 14kts
02-Jul-18 17:49 32.729530 -117.176733 72 22ft 0kts
02-Jul-18 17:50 32.729530 -117.176733 72 22ft 0kts
02-Jul-18 17:51 32.730888 -117.178567 286 22ft 59kts
02-Jul-18 17:53 32.746127 -117.221140 303 1574ft 173kts
02-Jul-18 17:54 32.772403 -117.269127 302 4087ft 179kts
02-Jul-18 17:55 32.800358 -117.319520 305 6291ft 188kts
02-Jul-18 17:56 32.844239 -117.353719 348 7973ft 213kts
02-Jul-18 17:57 32.903829 -117.385081 321 7997ft 253kts
02-Jul-18 17:58 32.959618 -117.438665 319 7989ft 261kts
02-Jul-18 17:59 33.015816 -117.493326 319 7988ft 259kts
02-Jul-18 18:00 33.071124 -117.547217 320 7988ft 255kts
02-Jul-18 18:01 33.125005 -117.599929 320 7989ft 253kts
02-Jul-18 18:02 33.179328 -117.653065 319 7989ft 253kts
02-Jul-18 18:03 33.233595 -117.706205 319 7990ft 253kts
02-Jul-18 18:04 33.287849 -117.759415 319 7990ft 253kts
02-Jul-18 18:05 33.342318 -117.812916 319 7990ft 253kts
02-Jul-18 18:06 33.393745 -117.863517 319 7990ft 254kts
02-Jul-18 18:07 33.452067 -117.910339 340 7976ft 257kts
02-Jul-18 18:08 33.518154 -117.936126 340 7468ft 235kts
02-Jul-18 18:09 33.573973 -117.960835 337 6983ft 195kts
02-Jul-18 18:10 33.628978 -117.985551 338 6993ft 223kts
02-Jul-18 18:11 33.687916 -118.011965 338 6983ft 222kts
02-Jul-18 18:12 33.742065 -118.036317 338 6989ft 204kts
02-Jul-18 18:13 33.787541 -118.067408 303 6988ft 183kts
02-Jul-18 18:14 33.834618 -118.090908 341 6194ft 194kts
02-Jul-18 18:15 33.884032 -118.109621 341 4955ft 182kts
02-Jul-18 18:16 33.932062 -118.128068 341 3434ft 177kts
02-Jul-18 18:17 33.957012 -118.167267 262 2992ft 187kts
02-Jul-18 18:18 33.949965 -118.227470 262 2821ft 179kts
02-Jul-18 18:19 33.947314 -118.283703 262 1775ft 161kts
02-Jul-18 18:20 33.942483 -118.332664 261 975ft 127kts
02-Jul-18 18:21 33.938230 -118.374353 260 323ft 122kts
02-Jul-18 18:22 33.935362 -118.404027 277 132ft 23kts
02-Jul-18 18:23 33.935792 -118.405912 300 132ft 0kts
02-Jul-18 18:24 33.935792 -118.405912 300 132ft 0kts
02-Jul-18 18:25 33.937997 -118.407675 84 132ft 21kts
02-Jul-18 18:26 33.938934 -118.398416 82 132ft 15kts
02-Jul-18 18:27 33.940994 -118.397583 75 132ft 0kts
02-Jul-18 18:28 33.940994 -118.397584 75 132ft 0kts
02-Jul-18 18:29 33.940994 -118.397584 75 132ft 0kts
02-Jul-18 18:30 33.940994 -118.397584 75 132ft 0kts

Navigation Log

Ident Type
Flight plan parsing failed, navigation log unavailable